createdAt,value
2023-02-12T00:00:58.661Z,41.97
2023-02-12T00:03:26.845Z,42.77
2023-02-12T00:05:55.149Z,41.57
2023-02-12T00:08:23.446Z,42.53
2023-02-12T00:10:51.419Z,41.03
2023-02-12T00:13:20.832Z,45.20
2023-02-12T00:15:48.933Z,43.20
2023-02-12T00:18:17.091Z,45.20
2023-02-12T00:20:45.066Z,45.37
2023-02-12T00:23:13.299Z,42.77
2023-02-12T00:25:43.389Z,43.27
2023-02-12T00:28:11.400Z,44.20
2023-02-12T00:30:40.914Z,44.30
2023-02-12T00:33:08.935Z,42.97
2023-02-12T00:35:36.968Z,46.20
2023-02-12T00:38:05.100Z,44.83
2023-02-12T00:40:33.096Z,41.90
2023-02-12T00:43:01.135Z,44.33
2023-02-12T00:45:29.227Z,47.60
2023-02-12T00:48:00.708Z,41.97
2023-02-12T00:50:31.458Z,46.60
2023-02-12T00:53:01.735Z,45.17
2023-02-12T00:55:31.284Z,41.30
2023-02-12T00:57:59.225Z,45.80
2023-02-12T01:00:27.577Z,45.00
2023-02-12T01:02:55.579Z,43.30
2023-02-12T01:05:25.154Z,41.73
2023-02-12T01:07:54.253Z,48.37
2023-02-12T01:10:22.646Z,43.17
2023-02-12T01:12:50.932Z,43.03
2023-02-12T01:15:19.624Z,41.90
2023-02-12T01:17:47.748Z,47.63
2023-02-12T01:20:18.505Z,41.10
2023-02-12T01:22:48.122Z,40.17
2023-02-12T01:25:18.170Z,40.00
2023-02-12T01:27:48.258Z,43.37
2023-02-12T01:30:17.638Z,40.67
2023-02-12T01:32:45.706Z,38.37
2023-02-12T01:35:13.673Z,40.43
2023-02-12T01:37:42.241Z,41.07
2023-02-12T01:40:16.702Z,42.20
2023-02-12T01:42:47.012Z,41.27
2023-02-12T01:45:49.153Z,39.97
2023-02-12T01:48:18.573Z,42.60
2023-02-12T01:50:47.574Z,43.50
2023-02-12T01:53:20.269Z,43.83
2023-02-12T01:55:52.207Z,48.17
2023-02-12T01:58:20.522Z,47.50
2023-02-12T02:00:49.616Z,43.27
2023-02-12T02:03:18.025Z,45.83
2023-02-12T02:05:52.264Z,43.50
2023-02-12T02:08:20.208Z,42.17
2023-02-12T02:10:48.357Z,41.87
2023-02-12T02:13:35.414Z,40.63
2023-02-12T02:16:08.843Z,39.23
2023-02-12T02:18:41.656Z,37.33
2023-02-12T02:21:47.497Z,38.70
2023-02-12T02:24:53.491Z,35.43
2023-02-12T02:27:29.609Z,39.33
2023-02-12T02:30:22.796Z,37.83
2023-02-12T02:33:00.466Z,35.20
2023-02-12T02:35:32.042Z,41.80
2023-02-12T02:38:09.097Z,39.63
2023-02-12T02:40:42.910Z,40.07
2023-02-12T02:43:12.305Z,39.03
2023-02-12T02:45:44.609Z,37.37
2023-02-12T02:48:16.346Z,39.00
2023-02-12T02:50:46.685Z,37.60
2023-02-12T02:53:17.131Z,37.33
2023-02-12T02:55:47.459Z,43.90
2023-02-12T02:58:19.786Z,40.03
2023-02-12T03:00:55.716Z,41.07
2023-02-12T03:03:26.980Z,43.27
2023-02-12T03:05:57.888Z,41.93
2023-02-12T03:08:27.824Z,37.60
2023-02-12T03:10:57.929Z,41.47
2023-02-12T03:13:29.069Z,40.20
2023-02-12T03:16:01.436Z,46.00
2023-02-12T03:18:31.767Z,43.57
2023-02-12T03:21:02.028Z,46.77
2023-02-12T03:23:35.694Z,47.27
2023-02-12T03:26:06.830Z,44.57
2023-02-12T03:28:37.037Z,43.63
2023-02-12T03:31:11.960Z,46.43
2023-02-12T03:33:46.010Z,46.57
2023-02-12T03:36:27.024Z,47.63
2023-02-12T03:38:56.636Z,46.17
2023-02-12T03:41:28.849Z,43.83
2023-02-12T03:44:02.015Z,42.70
2023-02-12T03:46:38.032Z,45.93
2023-02-12T03:49:10.392Z,46.83
2023-02-12T03:51:40.694Z,47.43
2023-02-12T03:54:10.890Z,52.37
2023-02-12T03:56:42.154Z,55.60
2023-02-12T03:59:10.337Z,50.90
2023-02-12T04:01:39.996Z,54.57
2023-02-12T04:04:09.744Z,54.87
2023-02-12T04:06:38.010Z,52.87
2023-02-12T04:09:07.537Z,50.13
2023-02-12T04:11:45.700Z,44.33
2023-02-12T04:14:22.202Z,42.17
2023-02-12T04:16:53.528Z,41.07
2023-02-12T04:19:27.620Z,43.43
2023-02-12T04:22:06.288Z,38.60
2023-02-12T04:24:43.467Z,37.73
2023-02-12T04:27:17.404Z,39.87
2023-02-12T04:29:49.974Z,39.80
2023-02-12T04:32:21.972Z,39.73
2023-02-12T04:34:54.054Z,43.50
2023-02-12T04:37:24.384Z,40.97
2023-02-12T04:39:52.847Z,40.30
2023-02-12T04:42:20.947Z,39.00
2023-02-12T04:44:50.845Z,39.50
2023-02-12T04:47:20.153Z,38.60
2023-02-12T04:49:48.214Z,36.80
2023-02-12T04:52:16.276Z,41.13
2023-02-12T04:54:44.267Z,33.57
2023-02-12T04:57:12.244Z,38.70
2023-02-12T04:59:40.261Z,40.77
2023-02-12T05:02:08.281Z,38.13
2023-02-12T05:04:37.703Z,42.47
2023-02-12T05:07:05.762Z,38.37
2023-02-12T05:09:33.702Z,37.53
2023-02-12T05:12:01.827Z,39.93
2023-02-12T05:14:29.877Z,39.20
2023-02-12T05:16:57.882Z,37.87
2023-02-12T05:19:25.849Z,38.70
2023-02-12T05:21:55.230Z,39.43
2023-02-12T05:24:23.276Z,38.57
2023-02-12T05:26:52.448Z,42.90
2023-02-12T05:29:20.635Z,40.30
2023-02-12T05:31:48.729Z,42.30
2023-02-12T05:34:16.817Z,43.63
2023-02-12T05:36:44.865Z,47.30
2023-02-12T05:39:14.237Z,44.90
2023-02-12T05:41:42.294Z,48.77
2023-02-12T05:44:12.010Z,42.40
2023-02-12T05:46:40.207Z,48.70
2023-02-12T05:49:08.649Z,45.07
2023-02-12T05:51:37.070Z,43.33
2023-02-12T05:54:07.189Z,50.37
2023-02-12T05:56:37.486Z,45.53
2023-02-12T05:59:07.112Z,47.77
2023-02-12T06:01:36.567Z,49.87
2023-02-12T06:04:06.910Z,49.17
2023-02-12T06:06:35.436Z,49.27
2023-02-12T06:09:04.136Z,49.50
2023-02-12T06:11:32.183Z,43.40
2023-02-12T06:14:03.311Z,47.10
2023-02-12T06:16:31.395Z,47.37
2023-02-12T06:18:59.964Z,46.43
2023-02-12T06:21:28.344Z,48.90
2023-02-12T06:23:56.651Z,52.83
2023-02-12T06:26:25.175Z,49.77
2023-02-12T06:28:55.080Z,48.30
2023-02-12T06:31:26.653Z,48.50
2023-02-12T06:33:55.836Z,46.87
2023-02-12T06:36:24.088Z,47.97
2023-02-12T06:38:52.820Z,47.90
2023-02-12T06:41:20.940Z,45.43
2023-02-12T06:43:48.941Z,47.97
2023-02-12T06:46:17.225Z,46.80
2023-02-12T06:48:46.632Z,44.33
2023-02-12T06:51:16.646Z,42.43
2023-02-12T06:53:45.784Z,45.77
2023-02-12T06:56:14.773Z,47.40
2023-02-12T06:58:46.390Z,45.63
2023-02-12T07:01:17.694Z,49.17
2023-02-12T07:03:49.998Z,44.63
2023-02-12T07:06:18.385Z,41.20
2023-02-12T07:08:46.830Z,44.67
2023-02-12T07:11:15.213Z,49.23
2023-02-12T07:13:43.851Z,47.57
2023-02-12T07:16:14.426Z,44.13
2023-02-12T07:18:43.194Z,42.47
2023-02-12T07:21:13.806Z,44.47
2023-02-12T07:23:42.259Z,45.60
2023-02-12T07:26:12.801Z,47.97
2023-02-12T07:28:41.732Z,49.37
2023-02-12T07:31:11.064Z,48.43
2023-02-12T07:33:39.932Z,45.97
2023-02-12T07:36:10.120Z,52.10
2023-02-12T07:38:40.582Z,46.77
2023-02-12T07:41:10.927Z,45.33
2023-02-12T07:43:39.975Z,41.17
2023-02-12T07:46:12.959Z,41.27
2023-02-12T07:48:41.633Z,43.90
2023-02-12T07:51:12.036Z,44.83
2023-02-12T07:53:41.649Z,43.43
2023-02-12T07:56:11.780Z,44.77
2023-02-12T07:58:40.255Z,47.10
2023-02-12T08:01:17.888Z,45.50
2023-02-12T08:03:46.729Z,43.90
2023-02-12T08:06:17.004Z,45.50
2023-02-12T08:08:46.650Z,43.90
2023-02-12T08:11:16.636Z,43.90
2023-02-12T08:13:44.746Z,45.43
2023-02-12T08:16:15.984Z,44.07
2023-02-12T08:18:44.596Z,42.33
2023-02-12T08:21:16.671Z,42.03
2023-02-12T08:23:46.266Z,46.13
2023-02-12T08:26:16.238Z,43.70
2023-02-12T08:28:45.835Z,44.47
2023-02-12T08:31:15.901Z,45.17
2023-02-12T08:33:45.486Z,42.97
2023-02-12T08:36:15.629Z,41.73
2023-02-12T08:38:46.802Z,41.70
2023-02-12T08:41:19.203Z,41.67
2023-02-12T08:43:49.270Z,45.60
2023-02-12T08:46:18.572Z,40.50
2023-02-12T08:48:46.872Z,44.33
2023-02-12T08:51:16.962Z,45.20
2023-02-12T08:53:48.463Z,45.83
2023-02-12T08:56:18.299Z,41.13
2023-02-12T08:58:46.594Z,45.27
2023-02-12T09:01:16.999Z,45.87
2023-02-12T09:03:46.067Z,45.43
2023-02-12T09:06:14.952Z,45.63
2023-02-12T09:08:43.323Z,45.90
2023-02-12T09:11:16.552Z,42.60
2023-02-12T09:13:45.745Z,47.93
2023-02-12T09:16:14.216Z,47.70
2023-02-12T09:18:42.914Z,47.40
2023-02-12T09:21:12.772Z,52.70
2023-02-12T09:23:41.136Z,44.90
2023-02-12T09:26:10.210Z,47.93
2023-02-12T09:28:40.564Z,50.33
2023-02-12T09:31:09.818Z,52.33
2023-02-12T09:33:38.167Z,47.17
2023-02-12T09:36:08.045Z,45.87
2023-02-12T09:38:36.059Z,48.47
2023-02-12T09:41:38.149Z,50.53
2023-02-12T09:44:10.599Z,52.27
2023-02-12T09:46:44.194Z,53.37
2023-02-12T09:49:17.603Z,50.00
2023-02-12T09:51:48.649Z,48.73
2023-02-12T09:54:19.959Z,52.87
2023-02-12T09:56:50.872Z,50.17
2023-02-12T09:59:28.296Z,56.63
2023-02-12T10:01:56.391Z,56.33
2023-02-12T10:04:25.982Z,52.60
2023-02-12T10:07:02.381Z,53.50
2023-02-12T10:09:49.658Z,52.23
2023-02-12T10:12:21.624Z,50.53
2023-02-12T10:15:16.510Z,54.63
2023-02-12T10:17:48.923Z,54.60
2023-02-12T10:20:42.412Z,54.03
2023-02-12T10:23:23.536Z,50.43
2023-02-12T10:25:54.323Z,56.47
2023-02-12T10:28:27.848Z,50.53
2023-02-12T10:30:59.985Z,56.77
2023-02-12T10:33:30.561Z,52.47
2023-02-12T10:36:02.342Z,56.20
2023-02-12T10:38:33.071Z,54.87
2023-02-12T10:41:02.510Z,54.83
2023-02-12T10:43:30.843Z,55.43
2023-02-12T10:46:00.318Z,55.13
2023-02-12T10:48:32.585Z,52.77
2023-02-12T10:51:14.012Z,52.30
2023-02-12T10:53:43.316Z,54.67
2023-02-12T10:56:17.344Z,53.50
2023-02-12T10:58:56.341Z,52.40
2023-02-12T11:01:28.478Z,52.40
2023-02-12T11:03:59.090Z,51.40
2023-02-12T11:06:28.853Z,49.87
2023-02-12T11:08:57.628Z,56.23
2023-02-12T11:11:28.867Z,53.70
2023-02-12T11:13:59.782Z,51.50
2023-02-12T11:16:34.715Z,52.13
2023-02-12T11:19:05.153Z,48.27
2023-02-12T11:21:33.790Z,51.17
2023-02-12T11:24:23.901Z,47.03
2023-02-12T11:26:52.131Z,47.13
2023-02-12T11:29:23.594Z,47.17
2023-02-12T11:32:03.442Z,46.57
2023-02-12T11:34:31.962Z,49.20
2023-02-12T11:37:00.116Z,47.53
2023-02-12T11:39:30.349Z,40.03
2023-02-12T11:42:00.550Z,44.83
2023-02-12T11:44:30.206Z,46.00
2023-02-12T11:47:02.122Z,42.27
2023-02-12T11:49:33.908Z,42.37
2023-02-12T11:52:03.794Z,40.40
2023-02-12T11:54:35.271Z,47.30
2023-02-12T11:57:03.225Z,47.03
2023-02-12T11:59:35.725Z,43.70
2023-02-12T12:02:10.371Z,42.33
2023-02-12T12:04:40.665Z,38.70
2023-02-12T12:07:15.074Z,38.87
2023-02-12T12:09:47.443Z,35.57
2023-02-12T12:12:19.923Z,39.17
2023-02-12T12:15:04.185Z,36.30
2023-02-12T12:18:02.655Z,35.40
2023-02-12T12:20:36.759Z,33.77
2023-02-12T12:23:09.244Z,40.63
2023-02-12T12:25:41.972Z,37.77
2023-02-12T12:28:29.003Z,36.77
2023-02-12T12:31:05.127Z,37.47
2023-02-12T12:33:39.403Z,35.57
2023-02-12T12:36:53.859Z,37.90
2023-02-12T12:39:28.915Z,37.70
2023-02-12T12:42:33.252Z,35.40
2023-02-12T12:45:24.096Z,34.00
2023-02-12T12:48:02.586Z,38.30
2023-02-12T12:50:44.199Z,40.10
2023-02-12T12:53:28.966Z,36.67
2023-02-12T12:56:16.139Z,36.10
2023-02-12T12:58:55.410Z,36.10
2023-02-12T13:01:45.888Z,34.70
2023-02-12T13:04:32.807Z,38.23
2023-02-12T13:07:08.832Z,34.23
2023-02-12T13:09:49.490Z,34.13
2023-02-12T13:12:33.112Z,31.37
2023-02-12T13:15:09.674Z,27.63
2023-02-12T13:17:45.820Z,34.33
2023-02-12T13:20:19.083Z,32.23
2023-02-12T13:22:52.707Z,30.43
2023-02-12T13:25:28.311Z,33.53
2023-02-12T13:27:57.085Z,38.40
2023-02-12T13:30:26.734Z,31.73
2023-02-12T13:33:03.298Z,30.53
2023-02-12T13:35:32.512Z,32.63
2023-02-12T13:38:01.747Z,38.03
2023-02-12T13:40:31.900Z,34.00
2023-02-12T13:43:07.845Z,32.17
2023-02-12T13:45:42.144Z,31.23
2023-02-12T13:48:34.857Z,33.20
2023-02-12T13:51:07.850Z,33.63
2023-02-12T13:53:48.479Z,30.97
2023-02-12T13:56:28.723Z,31.23
2023-02-12T13:59:00.348Z,30.67
2023-02-12T14:01:41.697Z,35.40
2023-02-12T14:04:24.042Z,32.43
2023-02-12T14:06:54.474Z,34.23
2023-02-12T14:09:23.908Z,29.63
2023-02-12T14:11:54.684Z,32.07
2023-02-12T14:14:27.546Z,31.37
2023-02-12T14:16:55.544Z,35.33
2023-02-12T14:19:41.144Z,29.83
2023-02-12T14:22:13.999Z,32.37
2023-02-12T14:24:52.893Z,29.20
2023-02-12T14:27:45.771Z,33.33
2023-02-12T14:30:30.637Z,29.20
2023-02-12T14:33:12.845Z,31.93
2023-02-12T14:35:42.244Z,29.67
2023-02-12T14:39:01.183Z,30.10
2023-02-12T14:41:42.619Z,30.83
2023-02-12T14:44:45.584Z,34.47
2023-02-12T14:47:44.648Z,29.03
2023-02-12T14:50:23.102Z,32.40
2023-02-12T14:53:01.777Z,33.03
2023-02-12T14:55:33.781Z,29.67
2023-02-12T14:58:04.803Z,33.20
2023-02-12T15:00:36.839Z,28.90
2023-02-12T15:03:16.029Z,29.97
2023-02-12T15:05:47.641Z,29.47
2023-02-12T15:08:20.871Z,29.27
2023-02-12T15:10:50.945Z,31.47
2023-02-12T15:13:26.208Z,32.33
2023-02-12T15:15:58.356Z,33.93
2023-02-12T15:18:30.645Z,30.57
2023-02-12T15:21:02.041Z,25.23
2023-02-12T15:23:35.849Z,31.07
2023-02-12T15:26:05.243Z,29.03
2023-02-12T15:28:36.350Z,26.67
2023-02-12T15:31:10.598Z,26.20
2023-02-12T15:33:42.030Z,24.67
2023-02-12T15:36:12.173Z,26.00
2023-02-12T15:38:42.476Z,26.30
2023-02-12T15:41:30.376Z,24.20
2023-02-12T15:43:58.791Z,25.90
2023-02-12T15:46:28.410Z,24.73
2023-02-12T15:48:56.468Z,24.37
2023-02-12T15:51:29.766Z,19.23
2023-02-12T15:54:00.065Z,18.17
2023-02-12T15:56:29.124Z,17.60
2023-02-12T15:58:58.336Z,18.87
2023-02-12T16:01:29.457Z,16.60
2023-02-12T16:03:59.591Z,15.27
2023-02-12T16:06:29.910Z,14.07
2023-02-12T16:09:00.446Z,16.20
2023-02-12T16:11:29.691Z,14.87
2023-02-12T16:14:00.748Z,18.57
2023-02-12T16:16:31.717Z,15.23
2023-02-12T16:19:08.618Z,16.80
2023-02-12T16:21:38.778Z,15.97
2023-02-12T16:24:13.375Z,16.90
2023-02-12T16:26:41.344Z,18.87
2023-02-12T16:29:17.645Z,17.40
2023-02-12T16:31:58.925Z,15.67
2023-02-12T16:34:33.017Z,17.40
2023-02-12T16:37:01.400Z,16.67
2023-02-12T16:40:12.450Z,17.83
2023-02-12T16:43:04.228Z,16.13
2023-02-12T16:45:43.646Z,17.23
2023-02-12T16:48:28.140Z,17.43
2023-02-12T16:50:58.360Z,17.50
2023-02-12T16:53:47.403Z,16.47
2023-02-12T16:56:18.479Z,21.43
2023-02-12T16:58:48.352Z,19.83
2023-02-12T17:01:19.805Z,21.90
2023-02-12T17:03:50.572Z,18.40
2023-02-12T17:06:22.778Z,23.43
2023-02-12T17:08:50.915Z,19.27
2023-02-12T17:11:19.000Z,21.23
2023-02-12T17:13:49.242Z,20.57
2023-02-12T17:16:29.936Z,22.63
2023-02-12T17:19:03.947Z,20.67
2023-02-12T17:21:37.994Z,24.73
2023-02-12T17:24:16.232Z,25.13
2023-02-12T17:26:44.226Z,21.47
2023-02-12T17:29:14.321Z,23.77
2023-02-12T17:31:42.515Z,27.47
2023-02-12T17:34:12.058Z,22.77
2023-02-12T17:36:43.000Z,22.07
2023-02-12T17:39:14.141Z,24.07
2023-02-12T17:41:42.515Z,20.67
2023-02-12T17:44:11.883Z,23.23
2023-02-12T17:46:39.919Z,24.00
2023-02-12T17:49:08.007Z,21.43
2023-02-12T17:51:37.401Z,22.00
2023-02-12T17:54:05.959Z,22.13
2023-02-12T17:56:33.937Z,24.83
2023-02-12T17:59:02.172Z,24.10
2023-02-12T18:01:30.437Z,24.63
2023-02-12T18:03:59.420Z,21.00
2023-02-12T18:06:29.923Z,22.93
2023-02-12T18:09:01.840Z,22.83
2023-02-12T18:11:32.111Z,20.87
2023-02-12T18:14:00.825Z,24.03
2023-02-12T18:16:30.822Z,21.13
2023-02-12T18:18:59.895Z,18.67
2023-02-12T18:21:28.305Z,22.93
2023-02-12T18:23:56.407Z,25.97
2023-02-12T18:26:25.895Z,22.83
2023-02-12T18:28:54.347Z,22.33
2023-02-12T18:31:22.658Z,22.53
2023-02-12T18:33:50.842Z,24.97
2023-02-12T18:36:20.548Z,20.07
2023-02-12T18:38:50.450Z,27.80
2023-02-12T18:41:20.101Z,20.93
2023-02-12T18:43:49.952Z,26.87
2023-02-12T18:46:19.897Z,24.07
2023-02-12T18:48:48.075Z,24.73
2023-02-12T18:51:17.578Z,21.67
2023-02-12T18:53:46.334Z,24.57
2023-02-12T18:56:14.490Z,22.67
2023-02-12T18:58:42.522Z,25.20
2023-02-12T19:01:18.461Z,21.37
2023-02-12T19:03:47.693Z,21.20
2023-02-12T19:06:16.474Z,20.97
2023-02-12T19:08:44.709Z,20.90
2023-02-12T19:11:15.727Z,21.40
2023-02-12T19:13:44.792Z,19.97
2023-02-12T19:16:17.000Z,19.67
2023-02-12T19:18:45.381Z,17.97
2023-02-12T19:21:16.320Z,21.53
2023-02-12T19:23:44.912Z,18.63
2023-02-12T19:26:14.923Z,22.93
2023-02-12T19:28:43.663Z,16.40
2023-02-12T19:31:14.971Z,19.67
2023-02-12T19:33:45.613Z,19.10
2023-02-12T19:36:16.132Z,16.90
2023-02-12T19:38:44.411Z,13.60
2023-02-12T19:41:15.593Z,15.00
2023-02-12T19:43:45.874Z,11.63
2023-02-12T19:46:17.751Z,10.87
2023-02-12T19:48:48.927Z,11.17
2023-02-12T19:51:18.753Z,12.63
2023-02-12T19:53:47.021Z,12.20
2023-02-12T19:56:15.538Z,9.73
2023-02-12T19:58:44.178Z,9.27
2023-02-12T20:01:15.159Z,8.23
2023-02-12T20:03:43.799Z,10.80
2023-02-12T20:06:17.070Z,10.50
2023-02-12T20:08:45.239Z,10.20
2023-02-12T20:11:16.964Z,9.97
2023-02-12T20:13:45.133Z,11.27
2023-02-12T20:16:16.063Z,8.87
2023-02-12T20:18:45.066Z,8.87
2023-02-12T20:21:16.221Z,10.17
2023-02-12T20:23:45.141Z,8.40
2023-02-12T20:26:15.172Z,9.27
2023-02-12T20:28:43.999Z,8.67
2023-02-12T20:31:14.478Z,8.97
2023-02-12T20:33:42.908Z,7.90
2023-02-12T20:36:12.333Z,7.73
2023-02-12T20:38:44.722Z,9.23
2023-02-12T20:41:13.813Z,7.87
2023-02-12T20:43:41.936Z,8.67
2023-02-12T20:46:13.797Z,7.57
2023-02-12T20:48:42.249Z,9.40
2023-02-12T20:51:12.281Z,8.53
2023-02-12T20:53:42.517Z,7.83
2023-02-12T20:56:15.724Z,7.27
2023-02-12T20:58:46.046Z,7.63
2023-02-12T21:01:17.114Z,7.60
2023-02-12T21:03:45.573Z,8.17
2023-02-12T21:06:14.191Z,11.47
2023-02-12T21:08:44.184Z,7.87
2023-02-12T21:11:15.391Z,7.93
2023-02-12T21:13:53.737Z,8.47
2023-02-12T21:16:28.822Z,8.87
2023-02-12T21:19:00.124Z,10.23
2023-02-12T21:21:30.262Z,8.20
2023-02-12T21:24:03.043Z,9.13
2023-02-12T21:26:33.142Z,10.07
2023-02-12T21:29:02.947Z,9.80
2023-02-12T21:31:32.782Z,10.03
2023-02-12T21:34:02.211Z,10.50
2023-02-12T21:36:31.798Z,10.83
2023-02-12T21:39:01.771Z,10.53
2023-02-12T21:41:31.822Z,11.77
2023-02-12T21:44:05.864Z,12.00
2023-02-12T21:46:35.433Z,12.13
2023-02-12T21:49:04.161Z,15.63
2023-02-12T21:51:34.143Z,12.97
2023-02-12T21:54:06.295Z,14.50
2023-02-12T21:56:34.845Z,14.13
2023-02-12T21:59:03.014Z,13.20
2023-02-12T22:01:33.056Z,15.07
2023-02-12T22:04:01.908Z,18.07
2023-02-12T22:06:30.065Z,13.83
2023-02-12T22:09:06.425Z,16.00
2023-02-12T22:11:37.771Z,13.40
2023-02-12T22:14:07.166Z,14.67
2023-02-12T22:16:36.387Z,17.90
2023-02-12T22:19:05.708Z,13.77
2023-02-12T22:21:36.187Z,16.40
2023-02-12T22:24:07.989Z,15.33
2023-02-12T22:26:36.485Z,17.07
2023-02-12T22:29:06.383Z,15.73
2023-02-12T22:31:36.752Z,15.20
2023-02-12T22:34:06.943Z,14.40
2023-02-12T22:36:36.859Z,17.07
2023-02-12T22:39:06.997Z,13.37
2023-02-12T22:41:35.227Z,16.27
2023-02-12T22:44:06.114Z,14.97
2023-02-12T22:46:37.081Z,15.77
2023-02-12T22:49:05.261Z,16.37
2023-02-12T22:51:34.529Z,15.63
2023-02-12T22:54:02.906Z,16.37
2023-02-12T22:56:32.322Z,18.63
2023-02-12T22:59:02.169Z,19.50
2023-02-12T23:01:31.296Z,18.37
2023-02-12T23:03:59.629Z,19.73
2023-02-12T23:06:31.637Z,17.67
2023-02-12T23:09:02.408Z,18.47
2023-02-12T23:11:33.463Z,21.00
2023-02-12T23:14:01.989Z,18.23
2023-02-12T23:16:30.143Z,20.53
2023-02-12T23:18:59.275Z,20.97
2023-02-12T23:21:28.877Z,20.30
2023-02-12T23:23:57.124Z,19.20
2023-02-12T23:26:25.208Z,19.97
2023-02-12T23:28:54.820Z,20.40
2023-02-12T23:31:22.998Z,20.37
2023-02-12T23:33:51.169Z,19.37
2023-02-12T23:36:19.279Z,18.00
2023-02-12T23:38:47.497Z,19.63
2023-02-12T23:41:16.229Z,17.13
2023-02-12T23:43:44.387Z,18.73
2023-02-12T23:46:13.987Z,19.73
2023-02-12T23:48:42.410Z,18.00
2023-02-12T23:51:10.513Z,18.47
2023-02-12T23:53:38.668Z,16.80
2023-02-12T23:56:07.525Z,17.83
2023-02-12T23:58:35.536Z,17.23
